createdAt,value
2022-12-08T00:00:06.765Z,15.52
2022-12-08T00:01:13.304Z,14.10
2022-12-08T00:02:21.853Z,14.43
2022-12-08T00:03:24.914Z,15.43
2022-12-08T00:04:26.539Z,15.43
2022-12-08T00:05:48.125Z,14.95
2022-12-08T00:07:08.520Z,15.90
2022-12-08T00:11:25.791Z,15.80
2022-12-08T00:12:27.636Z,15.48
2022-12-08T00:13:30.336Z,16.88
2022-12-08T00:14:33.463Z,15.35
2022-12-08T00:15:35.931Z,16.67
2022-12-08T00:16:37.506Z,15.80
2022-12-08T00:17:40.058Z,15.68
2022-12-08T00:18:41.588Z,16.02
2022-12-08T00:19:44.853Z,14.95
2022-12-08T00:20:54.897Z,15.02
2022-12-08T00:21:58.161Z,14.70
2022-12-08T00:22:59.759Z,14.77
2022-12-08T00:24:02.299Z,14.70
2022-12-08T00:25:06.317Z,16.50
2022-12-08T00:26:09.371Z,15.18
2022-12-08T00:27:12.628Z,15.55
2022-12-08T00:28:15.260Z,14.55
2022-12-08T00:29:17.927Z,16.30
2022-12-08T00:30:20.651Z,16.23
2022-12-08T00:31:22.232Z,16.45
2022-12-08T00:32:24.855Z,16.20
2022-12-08T00:33:28.176Z,15.27
2022-12-08T00:34:31.657Z,16.42
2022-12-08T00:35:34.855Z,13.48
2022-12-08T00:36:40.610Z,14.80
2022-12-08T00:37:42.145Z,15.02
2022-12-08T00:38:44.991Z,15.98
2022-12-08T00:39:46.811Z,14.30
2022-12-08T00:40:49.456Z,14.05
2022-12-08T00:42:09.488Z,14.95
2022-12-08T00:43:20.558Z,13.65
2022-12-08T00:44:22.093Z,14.30
2022-12-08T00:45:24.605Z,13.98
2022-12-08T00:46:26.205Z,14.05
2022-12-08T00:47:29.077Z,13.05
2022-12-08T00:48:30.698Z,13.40
2022-12-08T00:49:33.296Z,12.93
2022-12-08T00:50:34.909Z,13.73
2022-12-08T00:51:37.713Z,13.40
2022-12-08T00:52:40.626Z,13.30
2022-12-08T00:53:43.161Z,13.05
2022-12-08T00:54:44.759Z,12.57
2022-12-08T00:55:47.303Z,11.55
2022-12-08T00:56:49.193Z,13.18
2022-12-08T00:57:51.702Z,13.38
2022-12-08T00:58:53.692Z,12.52
2022-12-08T00:59:57.128Z,12.32
2022-12-08T01:00:58.707Z,12.85
2022-12-08T01:02:01.298Z,12.05
2022-12-08T01:03:02.936Z,12.55
2022-12-08T01:04:06.032Z,11.60
2022-12-08T01:05:08.282Z,12.77
2022-12-08T01:06:11.245Z,14.00
2022-12-08T01:07:12.845Z,12.07
2022-12-08T01:08:16.857Z,13.95
2022-12-08T01:09:19.113Z,12.40
2022-12-08T01:10:21.634Z,11.38
2022-12-08T01:11:23.248Z,12.60
2022-12-08T01:12:30.142Z,12.50
2022-12-08T01:13:32.871Z,12.57
2022-12-08T01:14:35.378Z,11.65
2022-12-08T01:20:14.908Z,12.88
2022-12-08T01:21:16.934Z,12.68
2022-12-08T01:22:19.469Z,13.60
2022-12-08T01:23:22.332Z,13.38
2022-12-08T01:24:24.899Z,12.63
2022-12-08T01:25:27.713Z,12.45
2022-12-08T01:26:30.181Z,11.55
2022-12-08T01:27:31.899Z,11.75
2022-12-08T01:28:35.133Z,12.27
2022-12-08T01:29:36.895Z,12.50
2022-12-08T01:30:40.050Z,12.50
2022-12-08T01:31:41.823Z,13.02
2022-12-08T01:32:44.360Z,12.40
2022-12-08T01:33:46.248Z,12.85
2022-12-08T01:34:48.891Z,13.07
2022-12-08T01:35:50.458Z,14.02
2022-12-08T01:36:52.923Z,13.25
2022-12-08T01:37:55.518Z,12.95
2022-12-08T01:38:59.966Z,12.77
2022-12-08T01:40:03.160Z,12.80
2022-12-08T01:41:05.049Z,13.93
2022-12-08T01:42:15.143Z,13.90
2022-12-08T01:43:18.595Z,12.75
2022-12-08T01:44:59.967Z,13.82
2022-12-08T01:46:01.869Z,14.73
2022-12-08T01:47:04.666Z,14.63
2022-12-08T01:48:11.413Z,14.50
2022-12-08T01:49:18.107Z,15.27
2022-12-08T01:50:20.557Z,14.73
2022-12-08T01:51:23.671Z,16.42
2022-12-08T01:52:29.912Z,14.57
2022-12-08T01:53:32.934Z,15.75
2022-12-08T01:54:42.571Z,14.90
2022-12-08T01:55:50.944Z,16.20
2022-12-08T01:56:58.673Z,14.45
2022-12-08T01:58:07.010Z,15.80
2022-12-08T01:59:10.174Z,15.50
2022-12-08T02:00:15.438Z,14.23
2022-12-08T02:01:17.467Z,15.10
2022-12-08T02:02:20.161Z,15.35
2022-12-08T02:03:29.074Z,15.20
2022-12-08T02:04:30.600Z,14.68
2022-12-08T02:05:36.812Z,14.50
2022-12-08T02:06:43.076Z,14.52
2022-12-08T02:07:47.145Z,15.05
2022-12-08T02:08:50.003Z,14.65
2022-12-08T02:09:55.638Z,14.18
2022-12-08T02:10:57.774Z,14.80
2022-12-08T02:12:01.284Z,13.90
2022-12-08T02:13:04.890Z,15.00
2022-12-08T02:14:09.597Z,13.73
2022-12-08T02:15:11.736Z,15.60
2022-12-08T02:16:25.262Z,14.45
2022-12-08T02:17:43.037Z,15.50
2022-12-08T02:19:22.494Z,15.75
2022-12-08T02:20:28.591Z,14.13
2022-12-08T02:21:39.585Z,14.00
2022-12-08T02:22:51.915Z,13.68
2022-12-08T02:24:07.318Z,16.15
2022-12-08T02:25:20.161Z,14.90
2022-12-08T02:26:49.376Z,14.60
2022-12-08T02:28:05.373Z,14.27
2022-12-08T02:29:32.669Z,13.63
2022-12-08T02:30:44.034Z,14.00
2022-12-08T02:31:59.026Z,13.95
2022-12-08T02:33:29.351Z,14.07
2022-12-08T02:34:41.551Z,14.23
2022-12-08T02:35:54.004Z,13.52
2022-12-08T02:37:07.049Z,13.90
2022-12-08T02:38:14.368Z,12.45
2022-12-08T02:39:28.841Z,12.18
2022-12-08T02:40:34.878Z,13.52
2022-12-08T02:41:42.774Z,11.73
2022-12-08T02:42:48.429Z,12.07
2022-12-08T02:43:58.520Z,11.32
2022-12-08T02:45:03.470Z,11.38
2022-12-08T02:46:10.656Z,11.65
2022-12-08T02:47:17.112Z,11.57
2022-12-08T02:48:18.638Z,11.68
2022-12-08T02:49:21.149Z,12.60
2022-12-08T02:50:24.068Z,11.40
2022-12-08T02:51:26.721Z,11.98
2022-12-08T02:52:43.361Z,13.15
2022-12-08T02:53:47.092Z,12.80
2022-12-08T02:54:53.420Z,12.90
2022-12-08T02:56:11.037Z,12.80
2022-12-08T02:57:25.817Z,14.40
2022-12-08T02:58:47.671Z,13.65
2022-12-08T03:00:03.970Z,11.77
2022-12-08T03:01:38.675Z,14.00
2022-12-08T03:02:50.112Z,12.77
2022-12-08T03:04:04.220Z,12.52
2022-12-08T03:05:13.693Z,13.20
2022-12-08T03:06:29.554Z,12.77
2022-12-08T03:07:35.427Z,13.23
2022-12-08T03:08:46.870Z,13.52
2022-12-08T03:09:55.308Z,13.60
2022-12-08T03:11:03.578Z,12.45
2022-12-08T03:12:14.063Z,12.80
2022-12-08T03:13:25.145Z,13.48
2022-12-08T03:14:31.302Z,12.05
2022-12-08T03:15:35.024Z,12.30
2022-12-08T03:16:40.701Z,11.60
2022-12-08T03:17:46.181Z,10.95
2022-12-08T03:18:53.713Z,11.75
2022-12-08T03:19:58.166Z,12.32
2022-12-08T03:21:01.500Z,13.07
2022-12-08T03:22:06.870Z,11.43
2022-12-08T03:23:12.393Z,11.82
2022-12-08T03:24:16.368Z,12.25
2022-12-08T03:25:23.029Z,12.35
2022-12-08T03:26:30.229Z,12.38
2022-12-08T03:27:33.312Z,11.45
2022-12-08T03:28:35.033Z,12.32
2022-12-08T03:29:37.597Z,10.55
2022-12-08T03:30:43.101Z,11.27
2022-12-08T03:31:52.247Z,11.45
2022-12-08T03:33:01.655Z,12.18
2022-12-08T03:34:06.039Z,11.55
2022-12-08T03:35:10.891Z,12.30
2022-12-08T03:36:15.237Z,11.98
2022-12-08T03:37:18.308Z,11.90
2022-12-08T03:38:20.838Z,11.50
2022-12-08T03:39:22.402Z,10.63
2022-12-08T03:40:26.330Z,11.73
2022-12-08T03:41:28.206Z,11.13
2022-12-08T03:42:30.679Z,11.23
2022-12-08T03:43:32.424Z,11.60
2022-12-08T03:44:34.899Z,10.15
2022-12-08T03:45:36.607Z,10.18
2022-12-08T03:46:39.153Z,10.68
2022-12-08T03:47:40.667Z,9.60
2022-12-08T03:48:43.242Z,10.20
2022-12-08T03:49:44.776Z,10.35
2022-12-08T03:50:47.243Z,9.20
2022-12-08T03:51:48.813Z,9.98
2022-12-08T03:52:52.644Z,10.88
2022-12-08T03:53:54.289Z,10.55
2022-12-08T03:54:56.823Z,10.40
2022-12-08T03:55:58.404Z,9.40
2022-12-08T03:57:00.861Z,10.32
2022-12-08T03:58:02.487Z,9.90
2022-12-08T03:59:05.526Z,9.93
2022-12-08T04:00:09.937Z,10.35
2022-12-08T04:01:14.298Z,9.20
2022-12-08T04:02:16.892Z,8.73
2022-12-08T04:03:18.524Z,9.90
2022-12-08T04:04:21.079Z,10.20
2022-12-08T04:05:22.590Z,9.68
2022-12-08T04:06:25.409Z,9.30
2022-12-08T04:07:27.070Z,9.65
2022-12-08T04:08:30.995Z,8.30
2022-12-08T04:09:34.178Z,9.38
2022-12-08T04:10:36.386Z,8.77
2022-12-08T04:11:38.896Z,7.57
2022-12-08T04:12:40.433Z,8.57
2022-12-08T04:13:43.524Z,9.45
2022-12-08T04:14:45.038Z,7.85
2022-12-08T04:15:48.241Z,8.05
2022-12-08T04:16:49.832Z,8.80
2022-12-08T04:17:52.304Z,9.05
2022-12-08T04:18:54.250Z,8.38
2022-12-08T04:19:57.288Z,9.43
2022-12-08T04:20:58.822Z,8.55
2022-12-08T04:22:01.309Z,8.43
2022-12-08T04:23:02.887Z,9.30
2022-12-08T04:24:07.685Z,7.72
2022-12-08T04:25:09.603Z,8.13
2022-12-08T04:26:12.532Z,8.63
2022-12-08T04:27:15.865Z,7.78
2022-12-08T04:28:18.557Z,8.05
2022-12-08T04:29:20.073Z,9.10
2022-12-08T04:30:22.643Z,8.50
2022-12-08T04:31:24.471Z,8.43
2022-12-08T04:32:26.972Z,8.60
2022-12-08T04:33:28.817Z,8.35
2022-12-08T04:34:31.308Z,9.23
2022-12-08T04:35:32.909Z,8.45
2022-12-08T04:36:35.445Z,8.77
2022-12-08T04:37:36.958Z,8.60
2022-12-08T04:38:39.863Z,10.35
2022-12-08T04:39:42.768Z,8.07
2022-12-08T04:40:45.374Z,8.45
2022-12-08T04:41:46.933Z,7.95
2022-12-08T04:42:49.456Z,8.02
2022-12-08T04:43:51.975Z,9.27
2022-12-08T04:44:53.488Z,8.57
2022-12-08T04:45:56.053Z,9.50
2022-12-08T04:46:57.607Z,8.80
2022-12-08T04:48:00.482Z,7.97
2022-12-08T04:49:03.031Z,9.00
2022-12-08T04:50:06.331Z,9.13
2022-12-08T04:51:16.023Z,9.52
2022-12-08T04:52:17.529Z,8.45
2022-12-08T04:53:21.199Z,8.15
2022-12-08T04:54:22.783Z,9.10
2022-12-08T04:55:26.671Z,10.02
2022-12-08T04:56:28.200Z,9.55
2022-12-08T04:57:30.774Z,10.82
2022-12-08T04:58:32.316Z,8.15
2022-12-08T04:59:37.832Z,8.05
2022-12-08T05:00:39.766Z,8.10
2022-12-08T05:01:42.704Z,9.00
2022-12-08T05:02:44.844Z,11.55
2022-12-08T05:03:47.419Z,8.70
2022-12-08T05:04:48.981Z,8.93
2022-12-08T05:05:51.464Z,8.93
2022-12-08T05:06:53.012Z,8.77
2022-12-08T05:07:55.482Z,8.80
2022-12-08T05:08:57.095Z,9.27
2022-12-08T05:09:59.831Z,8.20
2022-12-08T05:11:04.061Z,9.30
2022-12-08T05:12:06.766Z,8.20
2022-12-08T05:13:08.284Z,8.50
2022-12-08T05:14:12.882Z,9.27
2022-12-08T05:15:14.599Z,9.55
2022-12-08T05:16:17.552Z,10.25
2022-12-08T05:17:19.227Z,9.60
2022-12-08T05:18:21.781Z,9.48
2022-12-08T05:19:26.740Z,10.40
2022-12-08T05:20:29.315Z,9.38
2022-12-08T05:21:30.927Z,10.10
2022-12-08T05:22:33.463Z,10.40
2022-12-08T05:23:35.632Z,10.18
2022-12-08T05:24:42.537Z,10.57
2022-12-08T05:25:48.250Z,9.45
2022-12-08T05:26:51.110Z,9.57
2022-12-08T05:28:06.231Z,10.25
2022-12-08T05:29:16.301Z,10.55
2022-12-08T05:30:18.914Z,10.38
2022-12-08T05:31:20.468Z,10.60
2022-12-08T05:32:23.091Z,12.32
2022-12-08T05:33:24.715Z,11.95
2022-12-08T05:34:27.468Z,10.88
2022-12-08T05:35:29.095Z,12.20
2022-12-08T05:36:31.628Z,11.00
2022-12-08T05:37:33.357Z,11.45
2022-12-08T05:38:35.905Z,12.13
2022-12-08T05:39:37.673Z,11.68
2022-12-08T05:40:41.095Z,12.52
2022-12-08T05:41:42.812Z,12.07
2022-12-08T05:42:46.946Z,12.80
2022-12-08T05:43:48.909Z,12.95
2022-12-08T05:44:51.409Z,12.68
2022-12-08T05:45:53.077Z,12.82
2022-12-08T05:46:55.604Z,13.45
2022-12-08T05:47:57.194Z,14.43
2022-12-08T05:49:01.000Z,13.82
2022-12-08T05:50:03.060Z,13.60
2022-12-08T05:51:06.389Z,13.50
2022-12-08T05:52:12.521Z,11.68
2022-12-08T05:53:15.087Z,13.20
2022-12-08T05:54:16.749Z,13.25
2022-12-08T05:55:19.237Z,13.75
2022-12-08T05:56:21.659Z,14.05
2022-12-08T05:57:24.113Z,14.80
2022-12-08T05:58:26.991Z,14.85
2022-12-08T05:59:29.506Z,15.00
2022-12-08T06:00:34.622Z,13.95
2022-12-08T06:01:37.420Z,14.63
2022-12-08T06:02:39.203Z,15.30
2022-12-08T06:03:41.902Z,17.30
2022-12-08T06:04:44.449Z,15.13
2022-12-08T06:05:47.236Z,17.55
2022-12-08T06:06:49.695Z,16.13
2022-12-08T06:07:51.326Z,14.48
2022-12-08T06:08:54.000Z,15.43
2022-12-08T06:09:55.591Z,16.58
2022-12-08T06:10:58.163Z,16.92
2022-12-08T06:11:59.688Z,16.05
2022-12-08T06:13:02.224Z,15.93
2022-12-08T06:14:05.181Z,15.90
2022-12-08T06:15:09.081Z,16.75
2022-12-08T06:16:11.627Z,14.52
2022-12-08T06:17:13.272Z,17.25
2022-12-08T06:18:15.968Z,16.80
2022-12-08T06:19:17.691Z,16.33
2022-12-08T06:20:20.192Z,16.75
2022-12-08T06:21:21.864Z,15.75
2022-12-08T06:22:24.382Z,16.23
2022-12-08T06:23:25.955Z,16.02
2022-12-08T06:24:28.633Z,15.20
2022-12-08T06:25:30.464Z,14.77
2022-12-08T06:26:32.965Z,14.02
2022-12-08T06:27:35.462Z,17.25
2022-12-08T06:28:37.366Z,14.65
2022-12-08T06:29:41.290Z,15.52
2022-12-08T06:30:42.851Z,14.23
2022-12-08T06:31:45.465Z,15.15
2022-12-08T06:32:47.058Z,15.65
2022-12-08T06:33:49.744Z,13.57
2022-12-08T06:34:51.332Z,15.23
2022-12-08T06:35:54.044Z,14.70
2022-12-08T06:36:56.523Z,13.75
2022-12-08T06:38:00.026Z,13.68
2022-12-08T06:39:02.953Z,14.80
2022-12-08T06:40:05.703Z,14.82
2022-12-08T06:41:15.323Z,14.30
2022-12-08T06:42:35.482Z,13.88
2022-12-08T06:43:37.986Z,14.63
2022-12-08T06:44:40.925Z,13.80
2022-12-08T06:45:43.501Z,13.18
2022-12-08T06:46:45.281Z,14.27
2022-12-08T06:47:47.850Z,14.02
2022-12-08T06:48:50.658Z,13.15
2022-12-08T06:49:52.244Z,13.95
2022-12-08T06:50:54.836Z,13.57
2022-12-08T06:51:56.513Z,14.77
2022-12-08T06:53:05.153Z,16.40
2022-12-08T06:54:08.396Z,16.40
2022-12-08T06:55:10.445Z,15.13
2022-12-08T06:56:14.071Z,14.40
2022-12-08T06:57:15.663Z,15.55
2022-12-08T06:58:18.366Z,14.93
2022-12-08T06:59:19.937Z,14.77
2022-12-08T07:00:23.983Z,13.27
2022-12-08T07:01:26.552Z,13.80
2022-12-08T07:02:28.227Z,15.02
2022-12-08T07:03:30.776Z,13.90
2022-12-08T07:04:33.560Z,14.02
2022-12-08T07:05:35.228Z,14.88
2022-12-08T07:06:37.932Z,14.45
2022-12-08T07:07:41.348Z,14.82
2022-12-08T07:08:43.987Z,14.68
2022-12-08T07:09:45.514Z,14.57
2022-12-08T07:10:47.999Z,14.98
2022-12-08T07:11:49.715Z,15.07
2022-12-08T07:12:52.272Z,13.18
2022-12-08T07:13:56.798Z,14.70
2022-12-08T07:14:58.868Z,15.43
2022-12-08T07:16:06.251Z,15.82
2022-12-08T07:17:08.139Z,15.18
2022-12-08T07:18:11.131Z,15.15
2022-12-08T07:19:13.643Z,14.35
2022-12-08T07:20:15.601Z,15.13
2022-12-08T07:21:18.778Z,14.30
2022-12-08T07:22:21.223Z,15.63
2022-12-08T07:23:23.943Z,15.13
2022-12-08T07:24:26.473Z,13.43
2022-12-08T07:25:28.043Z,15.85
2022-12-08T07:26:30.590Z,14.48
2022-12-08T07:27:32.219Z,15.30
2022-12-08T07:28:36.238Z,15.07
2022-12-08T07:29:37.821Z,14.73
2022-12-08T07:30:40.502Z,14.70
2022-12-08T07:31:43.514Z,16.63
2022-12-08T07:32:46.406Z,14.68
2022-12-08T07:33:48.057Z,13.88
2022-12-08T07:34:50.513Z,13.15
2022-12-08T07:35:54.980Z,14.80
2022-12-08T07:36:57.505Z,14.00
2022-12-08T07:38:00.214Z,14.88
2022-12-08T07:39:01.798Z,13.57
2022-12-08T07:40:05.344Z,12.73
2022-12-08T07:41:12.616Z,14.00
2022-12-08T07:42:15.124Z,13.82
2022-12-08T07:43:16.785Z,13.30
2022-12-08T07:44:19.353Z,12.00
2022-12-08T07:45:20.856Z,11.40
2022-12-08T07:46:25.634Z,13.32
2022-12-08T07:47:28.543Z,11.02
2022-12-08T07:48:31.012Z,11.82
2022-12-08T07:49:33.496Z,11.63
2022-12-08T07:50:36.386Z,11.80
2022-12-08T07:51:38.907Z,11.10
2022-12-08T07:52:40.471Z,13.02
2022-12-08T07:53:48.403Z,12.73
2022-12-08T07:54:53.327Z,12.43
2022-12-08T07:55:55.834Z,12.80
2022-12-08T07:56:58.551Z,11.98
2022-12-08T07:58:01.088Z,11.43
2022-12-08T07:59:04.075Z,10.48
2022-12-08T08:00:07.360Z,12.68
2022-12-08T08:01:21.473Z,13.23
2022-12-08T08:02:26.004Z,12.45
2022-12-08T08:03:30.432Z,13.73
2022-12-08T08:04:32.036Z,12.77
2022-12-08T08:05:34.580Z,13.00
2022-12-08T08:06:37.878Z,12.98
2022-12-08T08:07:41.989Z,11.43
2022-12-08T08:08:44.649Z,13.30
2022-12-08T08:09:46.154Z,12.95
2022-12-08T08:10:48.673Z,12.77
2022-12-08T08:15:03.607Z,12.30
2022-12-08T08:16:07.172Z,12.65
2022-12-08T08:17:08.866Z,14.98
2022-12-08T08:18:11.501Z,13.45
2022-12-08T08:19:14.430Z,13.18
2022-12-08T08:20:17.009Z,13.18
2022-12-08T08:22:43.497Z,12.80
2022-12-08T08:23:46.158Z,12.65
2022-12-08T08:24:47.811Z,12.07
2022-12-08T08:25:50.352Z,13.18
2022-12-08T08:26:55.150Z,11.85
2022-12-08T08:27:56.770Z,13.43
2022-12-08T08:28:59.505Z,13.65
2022-12-08T08:30:05.103Z,12.73
2022-12-08T08:31:08.247Z,12.27
2022-12-08T08:32:09.975Z,14.30
2022-12-08T08:33:12.474Z,11.95
2022-12-08T08:34:15.339Z,15.48
2022-12-08T08:35:18.431Z,14.43
2022-12-08T08:36:21.931Z,13.30
2022-12-08T08:37:24.593Z,13.40
2022-12-08T08:38:26.349Z,12.93
2022-12-08T08:39:30.586Z,14.13
2022-12-08T08:40:32.312Z,14.95
2022-12-08T08:41:35.317Z,14.05
2022-12-08T08:42:37.816Z,14.48
2022-12-08T08:43:39.480Z,14.00
2022-12-08T08:44:42.116Z,14.73
2022-12-08T08:45:43.925Z,14.30
2022-12-08T08:46:46.437Z,13.75
2022-12-08T08:47:48.104Z,14.02
2022-12-08T08:48:50.661Z,13.70
2022-12-08T08:49:54.515Z,15.43
2022-12-08T08:50:57.347Z,15.95
2022-12-08T08:51:59.851Z,17.20
2022-12-08T08:53:02.667Z,15.40
2022-12-08T08:54:05.319Z,16.10
2022-12-08T08:55:07.466Z,15.65
2022-12-08T08:56:11.212Z,17.02
2022-12-08T08:57:25.734Z,16.70
2022-12-08T08:58:28.714Z,16.15
2022-12-08T08:59:31.334Z,16.05
2022-12-08T09:00:32.856Z,16.38
2022-12-08T09:01:35.421Z,16.20
2022-12-08T09:02:38.310Z,16.35
2022-12-08T09:03:39.860Z,15.88
2022-12-08T09:04:42.473Z,16.73
2022-12-08T09:05:45.434Z,15.55
2022-12-08T09:06:48.297Z,14.57
2022-12-08T09:07:49.922Z,15.27
2022-12-08T09:08:52.799Z,15.88
2022-12-08T09:10:01.444Z,14.32
2022-12-08T09:11:04.564Z,14.73
2022-12-08T09:12:06.556Z,16.42
2022-12-08T09:13:09.876Z,15.50
2022-12-08T09:14:12.868Z,16.60
2022-12-08T09:15:15.877Z,15.25
2022-12-08T09:16:19.220Z,15.25
2022-12-08T09:17:20.817Z,14.77
2022-12-08T09:18:23.373Z,14.43
2022-12-08T09:19:25.919Z,15.57
2022-12-08T09:20:27.534Z,15.93
2022-12-08T09:21:37.244Z,15.52
2022-12-08T09:22:38.831Z,15.07
2022-12-08T09:23:41.525Z,14.52
2022-12-08T09:24:43.041Z,14.85
2022-12-08T09:25:45.992Z,15.30
2022-12-08T09:26:47.576Z,15.38
2022-12-08T09:27:50.092Z,16.63
2022-12-08T09:28:52.838Z,16.10
2022-12-08T09:29:55.295Z,15.40
2022-12-08T09:30:56.921Z,14.93
2022-12-08T09:31:59.556Z,16.23
2022-12-08T09:33:02.218Z,15.57
2022-12-08T09:34:05.283Z,14.27
2022-12-08T09:35:08.285Z,15.82
2022-12-08T09:36:11.896Z,14.50
2022-12-08T09:37:15.749Z,15.55
2022-12-08T09:38:17.347Z,13.00
2022-12-08T09:39:19.853Z,14.88
2022-12-08T09:40:24.783Z,14.15
2022-12-08T09:41:37.868Z,15.88
2022-12-08T09:42:51.481Z,14.63
2022-12-08T09:44:04.093Z,13.80
2022-12-08T09:45:11.451Z,15.10
2022-12-08T09:46:17.383Z,14.68
2022-12-08T09:47:23.573Z,14.15
2022-12-08T09:48:32.764Z,14.00
2022-12-08T09:49:39.573Z,13.70
2022-12-08T09:50:47.459Z,13.95
2022-12-08T09:51:50.377Z,12.43
2022-12-08T09:53:01.413Z,14.25
2022-12-08T09:54:07.738Z,13.10
2022-12-08T09:55:21.499Z,13.63
2022-12-08T09:56:25.577Z,13.50
2022-12-08T09:57:30.275Z,13.27
2022-12-08T09:58:45.069Z,12.20
2022-12-08T09:59:53.585Z,12.73
2022-12-08T10:00:56.970Z,11.55
2022-12-08T10:02:01.108Z,12.30
2022-12-08T10:03:04.114Z,12.25
2022-12-08T10:04:16.020Z,13.13
2022-12-08T10:05:17.873Z,14.38
2022-12-08T10:06:25.860Z,12.57
2022-12-08T10:07:39.177Z,12.18
2022-12-08T10:08:59.392Z,13.00
2022-12-08T10:10:08.161Z,13.50
2022-12-08T10:11:17.486Z,13.05
2022-12-08T10:12:27.342Z,11.70
2022-12-08T10:13:37.836Z,11.65
2022-12-08T10:14:43.887Z,12.95
2022-12-08T10:15:52.627Z,12.98
2022-12-08T10:17:02.798Z,12.90
2022-12-08T10:18:13.603Z,11.00
2022-12-08T10:19:19.708Z,13.25
2022-12-08T10:20:25.785Z,11.82
2022-12-08T10:21:31.595Z,11.40
2022-12-08T10:22:41.257Z,11.60
2022-12-08T10:23:51.187Z,11.25
2022-12-08T10:24:59.662Z,13.40
2022-12-08T10:26:04.909Z,9.68
2022-12-08T10:27:12.776Z,10.75
2022-12-08T10:28:15.574Z,10.80
2022-12-08T10:29:18.875Z,10.43
2022-12-08T10:30:22.197Z,11.05
2022-12-08T10:31:26.277Z,10.80
2022-12-08T10:32:36.319Z,10.43
2022-12-08T10:33:40.063Z,10.85
2022-12-08T10:35:02.053Z,10.23
2022-12-08T10:36:04.934Z,10.98
2022-12-08T10:37:10.550Z,10.13
2022-12-08T10:38:22.126Z,10.05
2022-12-08T10:39:35.585Z,11.02
2022-12-08T10:40:45.284Z,11.60
2022-12-08T10:41:48.204Z,11.75
2022-12-08T10:42:53.382Z,11.35
2022-12-08T10:44:00.456Z,11.25
2022-12-08T10:45:15.859Z,12.75
2022-12-08T10:46:21.766Z,11.38
2022-12-08T10:47:27.692Z,11.70
2022-12-08T10:48:31.615Z,10.65
2022-12-08T10:49:35.350Z,12.40
2022-12-08T10:50:44.045Z,10.95
2022-12-08T10:51:45.729Z,11.98
2022-12-08T10:52:55.824Z,11.60
2022-12-08T10:53:58.412Z,11.63
2022-12-08T10:55:01.466Z,11.60
2022-12-08T10:56:15.421Z,12.07
2022-12-08T10:57:22.213Z,11.20
2022-12-08T10:58:30.818Z,11.70
2022-12-08T10:59:34.803Z,11.20
2022-12-08T11:00:39.159Z,11.18
2022-12-08T11:01:43.764Z,12.20
2022-12-08T11:02:59.288Z,11.02
2022-12-08T11:04:04.996Z,11.30
2022-12-08T11:05:08.116Z,12.10
2022-12-08T11:06:16.228Z,12.20
2022-12-08T11:07:23.679Z,13.02
2022-12-08T11:08:26.629Z,11.35
2022-12-08T11:09:40.694Z,12.68
2022-12-08T11:10:46.230Z,11.77
2022-12-08T11:11:51.162Z,11.60
2022-12-08T11:12:53.740Z,12.50
2022-12-08T11:13:56.647Z,12.05
2022-12-08T11:15:03.599Z,12.73
2022-12-08T11:16:07.445Z,11.57
2022-12-08T11:17:13.800Z,11.43
2022-12-08T11:18:26.897Z,13.35
2022-12-08T11:19:29.457Z,11.05
2022-12-08T11:20:40.554Z,12.82
2022-12-08T11:21:43.634Z,11.50
2022-12-08T11:22:50.761Z,11.05
2022-12-08T11:23:53.265Z,11.63
2022-12-08T11:25:00.556Z,11.57
2022-12-08T11:26:13.811Z,11.25
2022-12-08T11:27:15.322Z,11.13
2022-12-08T11:28:23.074Z,11.43
2022-12-08T11:29:25.796Z,12.15
2022-12-08T11:30:31.441Z,11.25
2022-12-08T11:31:39.237Z,12.13
2022-12-08T11:32:44.734Z,10.23
2022-12-08T11:33:49.572Z,11.50
2022-12-08T11:34:55.988Z,11.18
2022-12-08T11:36:03.144Z,11.20
2022-12-08T11:37:11.271Z,9.95
2022-12-08T11:38:21.742Z,11.43
2022-12-08T11:39:27.788Z,11.32
2022-12-08T11:40:35.364Z,11.13
2022-12-08T11:41:42.840Z,10.50
2022-12-08T11:42:54.724Z,10.68
2022-12-08T11:44:05.466Z,10.85
2022-12-08T11:45:14.721Z,9.88
2022-12-08T11:46:21.893Z,9.50
2022-12-08T11:47:28.535Z,10.35
2022-12-08T11:48:35.049Z,10.38
2022-12-08T11:49:40.214Z,10.13
2022-12-08T11:50:47.137Z,10.32
2022-12-08T11:51:58.285Z,9.65
2022-12-08T11:53:01.589Z,10.27
2022-12-08T11:54:19.982Z,10.45
2022-12-08T11:55:37.180Z,10.45
2022-12-08T11:56:46.894Z,9.25
2022-12-08T11:57:50.198Z,10.20
2022-12-08T11:58:57.178Z,9.00
2022-12-08T12:00:01.842Z,9.70
2022-12-08T12:01:17.895Z,9.05
2022-12-08T12:02:23.088Z,9.95
2022-12-08T12:03:32.176Z,10.38
2022-12-08T12:04:41.315Z,8.60
2022-12-08T12:07:37.038Z,8.73
2022-12-08T12:08:50.279Z,8.93
2022-12-08T12:10:08.224Z,9.27
2022-12-08T12:11:37.912Z,8.73
2022-12-08T12:12:59.112Z,10.80
2022-12-08T12:14:16.350Z,9.90
2022-12-08T12:15:39.577Z,9.75
2022-12-08T12:16:57.610Z,9.80
2022-12-08T12:18:05.195Z,10.98
2022-12-08T12:19:15.718Z,10.73
2022-12-08T12:20:25.099Z,9.50
2022-12-08T12:21:33.879Z,10.77
2022-12-08T12:22:38.415Z,9.52
2022-12-08T12:23:45.868Z,9.20
2022-12-08T12:24:51.067Z,10.63
2022-12-08T12:25:59.056Z,11.45
2022-12-08T12:27:04.611Z,9.35
2022-12-08T12:28:08.949Z,8.80
2022-12-08T12:29:18.264Z,9.63
2022-12-08T12:30:23.410Z,9.40
2022-12-08T12:31:29.105Z,8.90
2022-12-08T12:32:43.632Z,7.93
2022-12-08T12:33:47.769Z,8.57
2022-12-08T12:34:53.244Z,9.05
2022-12-08T12:35:58.030Z,8.82
2022-12-08T12:37:08.860Z,9.38
2022-12-08T12:38:40.285Z,8.10
2022-12-08T12:39:51.248Z,8.70
2022-12-08T12:40:59.718Z,7.60
2022-12-08T12:42:03.634Z,8.40
2022-12-08T12:43:29.936Z,7.60
2022-12-08T12:44:43.384Z,9.38
2022-12-08T12:45:46.531Z,7.95
2022-12-08T12:46:59.355Z,7.32
2022-12-08T12:48:22.839Z,8.40
2022-12-08T12:49:52.011Z,8.70
2022-12-08T12:50:56.703Z,8.35
2022-12-08T12:51:58.290Z,8.25
2022-12-08T12:53:02.020Z,8.52
2022-12-08T12:54:22.434Z,7.25
2022-12-08T12:55:30.942Z,8.57
2022-12-08T12:56:51.487Z,9.10
2022-12-08T12:57:55.397Z,9.85
2022-12-08T12:59:31.915Z,8.20
2022-12-08T13:00:34.370Z,9.15
2022-12-08T13:01:51.972Z,7.28
2022-12-08T13:02:56.410Z,8.60
2022-12-08T13:04:05.212Z,7.60
2022-12-08T13:05:15.825Z,9.00
2022-12-08T13:06:23.980Z,7.80
2022-12-08T13:07:29.556Z,8.05
2022-12-08T13:08:34.932Z,8.75
2022-12-08T13:09:41.443Z,8.20
2022-12-08T13:10:57.965Z,6.88
2022-12-08T13:12:02.814Z,7.82
2022-12-08T13:13:17.171Z,8.30
2022-12-08T13:14:34.323Z,7.25
2022-12-08T13:15:39.247Z,7.18
2022-12-08T13:16:40.923Z,7.97
2022-12-08T13:17:47.600Z,7.90
2022-12-08T13:18:50.918Z,8.30
2022-12-08T13:19:57.339Z,8.90
2022-12-08T13:21:05.653Z,8.65
2022-12-08T13:22:45.005Z,8.02
2022-12-08T13:23:49.355Z,7.47
2022-12-08T13:24:50.983Z,7.32
2022-12-08T13:26:09.840Z,8.15
2022-12-08T13:27:35.275Z,8.25
2022-12-08T13:29:11.419Z,8.68
2022-12-08T13:30:42.125Z,8.57
2022-12-08T13:31:50.501Z,8.45
2022-12-08T13:34:25.442Z,8.63
2022-12-08T13:35:28.435Z,9.05
2022-12-08T13:36:36.223Z,9.18
2022-12-08T13:37:54.471Z,8.55
2022-12-08T13:38:59.584Z,8.40
2022-12-08T13:40:05.551Z,8.23
2022-12-08T13:41:18.371Z,7.85
2022-12-08T13:42:25.883Z,13.50
2022-12-08T13:43:48.365Z,7.93
2022-12-08T13:47:09.801Z,8.35
2022-12-08T13:53:49.096Z,7.65
2022-12-08T13:56:37.442Z,6.95
2022-12-08T13:57:06.705Z,7.95
2022-12-08T13:58:07.572Z,7.18
2022-12-08T13:59:24.205Z,7.53
2022-12-08T14:00:28.299Z,7.28
2022-12-08T14:01:33.339Z,8.10
2022-12-08T14:02:42.261Z,6.43
2022-12-08T14:04:28.531Z,8.05
2022-12-08T14:05:34.730Z,7.68
2022-12-08T14:06:39.609Z,8.00
2022-12-08T14:07:43.017Z,6.90
2022-12-08T14:09:00.371Z,6.78
2022-12-08T14:10:12.160Z,7.03
2022-12-08T14:11:33.446Z,7.00
2022-12-08T14:12:36.760Z,6.85
2022-12-08T14:13:39.376Z,7.00
2022-12-08T14:16:16.448Z,6.65
2022-12-08T14:17:22.917Z,7.75
2022-12-08T14:18:27.454Z,6.78
2022-12-08T14:19:32.215Z,6.80
2022-12-08T14:20:57.902Z,7.63
2022-12-08T14:21:59.452Z,7.32
2022-12-08T14:23:08.308Z,6.72
2022-12-08T14:24:11.277Z,7.80
2022-12-08T14:25:16.628Z,7.93
2022-12-08T14:26:18.349Z,7.20
2022-12-08T14:27:23.457Z,7.20
2022-12-08T14:28:25.573Z,7.80
2022-12-08T14:29:39.987Z,7.68
2022-12-08T14:30:42.728Z,6.90
2022-12-08T14:31:45.808Z,8.43
2022-12-08T14:32:51.700Z,8.85
2022-12-08T14:33:56.648Z,7.55
2022-12-08T14:35:12.191Z,7.55
2022-12-08T14:36:15.785Z,7.60
2022-12-08T14:37:18.392Z,7.38
2022-12-08T14:38:22.936Z,8.23
2022-12-08T14:39:24.588Z,7.40